Time;durP1;ratioP1;P1;durP2;ratioP2;P2;SDS_P1;SDS_P2;PMS_P1;PMS_P2;Temp;Humidity;BMP_temperature;BMP_pressure;BME280_temperature;BME280_humidity;BME280_pressure;Samples;Min_cycle;Max_cycle;Signal;HPM_P1;HPM_P2
2024/04/08 00:01:02;;;;;;;0.50;0.40;;;17.70;85.10;;;;;;5013421;28;20499;-75
2024/04/08 00:03:28;;;;;;;0.40;0.40;;;17.70;84.90;;;;;;5017691;28;20030;-76
2024/04/08 00:05:53;;;;;;;0.52;0.43;;;17.70;84.90;;;;;;4988249;28;20468;-76
2024/04/08 00:08:19;;;;;;;0.55;0.52;;;17.70;84.80;;;;;;5005982;28;20099;-76
2024/04/08 00:10:44;;;;;;;0.63;0.40;;;17.70;84.90;;;;;;5004632;28;22373;-76
2024/04/08 00:13:10;;;;;;;0.30;0.30;;;17.70;84.90;;;;;;5015784;28;20443;-76
2024/04/08 00:15:36;;;;;;;0.38;0.30;;;17.70;84.90;;;;;;5014751;28;20038;-76
2024/04/08 00:18:01;;;;;;;1.10;0.45;;;17.70;84.90;;;;;;5007189;28;20049;-76
2024/04/08 00:20:27;;;;;;;0.45;0.38;;;17.70;85.10;;;;;;4988257;28;20168;-76
2024/04/08 00:22:53;;;;;;;0.60;0.60;;;17.70;84.70;;;;;;5005838;28;20050;-76
2024/04/08 00:25:18;;;;;;;0.38;0.38;;;17.60;84.50;;;;;;5004582;28;20120;-76
2024/04/08 00:27:44;;;;;;;0.65;0.50;;;17.70;84.60;;;;;;5035657;28;20419;-76
2024/04/08 00:30:10;;;;;;;0.50;0.40;;;17.60;84.60;;;;;;4988113;28;20393;-76
2024/04/08 00:32:36;;;;;;;0.50;0.40;;;17.60;84.60;;;;;;5004821;28;20488;-77
2024/04/08 00:35:02;;;;;;;0.40;0.35;;;17.60;84.70;;;;;;4987549;28;20088;-76
2024/04/08 00:37:27;;;;;;;0.40;0.40;;;17.60;84.60;;;;;;5016055;28;20038;-76
2024/04/08 00:39:53;;;;;;;0.40;0.40;;;17.60;84.90;;;;;;4989963;28;20530;-76
2024/04/08 00:42:18;;;;;;;0.55;0.50;;;17.60;84.80;;;;;;5002103;28;20088;-76
2024/04/08 00:44:44;;;;;;;0.25;0.25;;;17.60;85.00;;;;;;4987897;28;20030;-76
2024/04/08 00:47:10;;;;;;;0.60;0.43;;;17.60;84.90;;;;;;5007312;28;20045;-76
2024/04/08 00:49:36;;;;;;;0.40;0.40;;;17.60;84.70;;;;;;5019734;28;20085;-77
2024/04/08 00:52:02;;;;;;;0.50;0.40;;;17.60;85.00;;;;;;4985170;28;20038;-76
2024/04/08 00:54:27;;;;;;;0.50;0.40;;;17.60;85.00;;;;;;4987900;28;20052;-76
2024/04/08 00:56:54;;;;;;;0.45;0.45;;;17.60;85.00;;;;;;4975742;28;20050;-76
2024/04/08 00:59:20;;;;;;;0.40;0.35;;;17.60;84.90;;;;;;5005547;28;20057;-76
2024/04/08 01:01:45;;;;;;;0.55;0.45;;;17.60;85.00;;;;;;5015535;28;20658;-76
2024/04/08 01:04:11;;;;;;;0.43;0.43;;;17.60;84.90;;;;;;5004189;28;20038;-76
2024/04/08 01:06:36;;;;;;;0.40;0.40;;;17.60;85.00;;;;;;4991508;28;20082;-76
2024/04/08 01:09:02;;;;;;;0.30;0.30;;;17.60;85.00;;;;;;4987512;28;20041;-76
2024/04/08 01:11:28;;;;;;;0.47;0.30;;;17.60;85.00;;;;;;5003766;28;20046;-76
2024/04/08 01:13:54;;;;;;;0.32;0.32;;;17.60;84.90;;;;;;5031327;28;20058;-76
2024/04/08 01:16:19;;;;;;;0.30;0.30;;;17.60;85.00;;;;;;5005583;28;20112;-76
2024/04/08 01:18:45;;;;;;;0.57;0.40;;;17.60;84.90;;;;;;5005185;28;20491;-76
2024/04/08 01:21:11;;;;;;;0.47;0.40;;;17.60;84.70;;;;;;5002275;28;20042;-76
2024/04/08 01:23:42;;;;;;;0.28;0.28;;;17.60;84.60;;;;;;4969778;28;20488;-76
2024/04/08 01:26:08;;;;;;;0.30;0.30;;;17.60;84.70;;;;;;5016633;28;20093;-76
2024/04/08 01:28:34;;;;;;;0.43;0.40;;;17.60;84.60;;;;;;5009209;28;20726;-76
2024/04/08 01:31:03;;;;;;;0.40;0.40;;;17.60;84.80;;;;;;5002378;28;20033;-76
2024/04/08 01:33:32;;;;;;;0.68;0.40;;;17.50;84.50;;;;;;4988832;28;20466;-76
2024/04/08 01:36:03;;;;;;;0.52;0.40;;;17.60;84.80;;;;;;4985236;28;20034;-76
2024/04/08 01:38:29;;;;;;;0.40;0.20;;;17.50;84.50;;;;;;4987825;28;20403;-76
2024/04/08 01:40:55;;;;;;;0.52;0.30;;;17.60;84.60;;;;;;5018406;28;20512;-76
2024/04/08 01:43:20;;;;;;;0.50;0.38;;;17.50;84.40;;;;;;4983331;28;20085;-76
2024/04/08 01:45:46;;;;;;;0.40;0.40;;;17.50;84.40;;;;;;5006650;28;20042;-76
2024/04/08 01:48:12;;;;;;;0.40;0.40;;;17.50;84.50;;;;;;5007987;28;20042;-76
2024/04/08 01:50:37;;;;;;;0.30;0.20;;;17.50;84.70;;;;;;5006995;28;20041;-76
2024/04/08 01:53:03;;;;;;;0.57;0.50;;;17.50;84.50;;;;;;5018673;28;20053;-76
2024/04/08 01:55:29;;;;;;;0.65;0.55;;;17.50;84.50;;;;;;4990261;28;20075;-76
2024/04/08 01:57:54;;;;;;;0.30;0.28;;;17.50;84.60;;;;;;5005759;28;20092;-76
2024/04/08 02:00:20;;;;;;;0.28;0.28;;;17.50;84.60;;;;;;5014062;28;20492;-76
2024/04/08 02:02:46;;;;;;;0.30;0.30;;;17.50;84.80;;;;;;4989289;28;20049;-76
2024/04/08 02:05:11;;;;;;;0.40;0.30;;;17.50;84.50;;;;;;5003411;28;20046;-76
2024/04/08 02:07:39;;;;;;;0.63;0.45;;;17.50;84.50;;;;;;5006232;28;20439;-76
2024/04/08 02:10:04;;;;;;;0.20;0.20;;;17.50;84.60;;;;;;5004769;28;20080;-76
2024/04/08 02:12:30;;;;;;;0.40;0.40;;;17.50;84.50;;;;;;5004790;28;20045;-76
2024/04/08 02:14:56;;;;;;;0.40;0.32;;;17.50;84.70;;;;;;5004577;28;20046;-76
2024/04/08 02:17:21;;;;;;;0.32;0.28;;;17.50;84.60;;;;;;5033679;28;20073;-76
2024/04/08 02:19:47;;;;;;;0.30;0.25;;;17.50;84.30;;;;;;5005128;28;20062;-76
2024/04/08 02:22:12;;;;;;;0.22;0.22;;;17.50;84.40;;;;;;5007218;28;20108;-76
2024/04/08 02:24:38;;;;;;;0.77;0.65;;;17.50;84.30;;;;;;5003386;28;20042;-76
2024/04/08 02:27:04;;;;;;;0.30;0.30;;;17.50;84.30;;;;;;4992090;28;20049;-76
2024/04/08 02:29:32;;;;;;;0.50;0.40;;;17.50;84.60;;;;;;5002867;28;20462;-76
2024/04/08 02:31:57;;;;;;;0.40;0.40;;;17.50;84.40;;;;;;4987176;28;20247;-76
2024/04/08 02:34:23;;;;;;;0.40;0.40;;;17.50;84.30;;;;;;5012451;28;20132;-76
2024/04/08 02:36:48;;;;;;;0.93;0.30;;;17.50;84.40;;;;;;5005416;28;20049;-76
2024/04/08 02:39:14;;;;;;;1.30;0.65;;;17.50;84.50;;;;;;5003185;28;20222;-76
2024/04/08 02:41:40;;;;;;;0.95;0.40;;;17.50;84.60;;;;;;5003711;28;20454;-76
2024/04/08 02:44:05;;;;;;;0.38;0.38;;;17.50;84.50;;;;;;5002162;28;20050;-76
2024/04/08 02:46:31;;;;;;;0.30;0.30;;;17.50;84.30;;;;;;5017827;28;20045;-76
2024/04/08 02:48:56;;;;;;;0.20;0.20;;;17.50;84.30;;;;;;5035949;28;20045;-76
2024/04/08 02:51:22;;;;;;;0.30;0.30;;;17.50;84.30;;;;;;5005612;28;20073;-76
2024/04/08 02:53:48;;;;;;;0.77;0.43;;;17.40;84.20;;;;;;5015483;28;20042;-76
2024/04/08 02:56:13;;;;;;;0.40;0.40;;;17.40;84.60;;;;;;5001745;28;20053;-76
2024/04/08 02:58:39;;;;;;;0.20;0.20;;;17.40;84.60;;;;;;5009794;28;20042;-76
2024/04/08 03:01:11;;;;;;;0.30;0.30;;;17.40;84.40;;;;;;5004046;28;20499;-76
2024/04/08 03:03:37;;;;;;;0.40;0.40;;;17.40;84.30;;;;;;5004851;28;20042;-76
2024/04/08 03:06:13;;;;;;;0.20;0.20;;;17.40;84.40;;;;;;5005890;28;20516;-76
2024/04/08 03:08:40;;;;;;;0.65;0.28;;;17.40;84.60;;;;;;5003897;28;20045;-76
2024/04/08 03:11:05;;;;;;;0.43;0.30;;;17.40;84.60;;;;;;5003462;28;20472;-76
2024/04/08 03:13:31;;;;;;;0.40;0.30;;;17.40;84.50;;;;;;5034342;28;20117;-76
2024/04/08 03:15:57;;;;;;;0.30;0.30;;;17.40;84.60;;;;;;5006579;28;20137;-76
2024/04/08 03:18:23;;;;;;;1.65;0.20;;;17.40;84.40;;;;;;5001826;28;20042;-76
2024/04/08 03:20:59;;;;;;;0.38;0.30;;;17.40;84.40;;;;;;5004279;28;20141;-76
2024/04/08 03:23:24;;;;;;;0.38;0.30;;;17.40;84.40;;;;;;4990809;28;20052;-76
2024/04/08 03:26:00;;;;;;;0.60;0.38;;;17.40;84.60;;;;;;5015045;28;20050;-76
2024/04/08 03:28:25;;;;;;;0.68;0.30;;;17.40;84.50;;;;;;5016870;28;20057;-76
2024/04/08 03:30:51;;;;;;;0.20;0.20;;;17.40;84.40;;;;;;5020545;28;20046;-76
2024/04/08 03:33:23;;;;;;;0.40;0.40;;;17.40;84.40;;;;;;5032737;28;20057;-76
2024/04/08 03:35:49;;;;;;;0.47;0.20;;;17.40;84.20;;;;;;5004958;28;20443;-76
2024/04/08 03:38:15;;;;;;;0.52;0.40;;;17.40;84.60;;;;;;5007361;28;20042;-76
2024/04/08 03:40:41;;;;;;;0.35;0.35;;;17.40;84.50;;;;;;5007255;28;20042;-76
2024/04/08 03:43:07;;;;;;;0.30;0.30;;;17.40;84.40;;;;;;5013358;28;20068;-76
2024/04/08 03:45:33;;;;;;;0.40;0.40;;;17.40;84.20;;;;;;5007020;28;20491;-76
2024/04/08 03:47:58;;;;;;;0.28;0.20;;;17.40;84.20;;;;;;4972729;28;20045;-76
2024/04/08 03:50:30;;;;;;;0.38;0.30;;;17.40;84.40;;;;;;5006130;28;20046;-76
2024/04/08 03:52:56;;;;;;;0.38;0.30;;;17.40;84.40;;;;;;5004390;28;20049;-76
2024/04/08 03:55:28;;;;;;;0.20;0.20;;;17.30;84.40;;;;;;4987362;28;20045;-76
2024/04/08 03:57:54;;;;;;;0.45;0.30;;;17.40;84.20;;;;;;5004993;28;20056;-76
2024/04/08 04:00:19;;;;;;;0.40;0.30;;;17.30;84.00;;;;;;4987888;28;20038;-76
2024/04/08 04:02:45;;;;;;;0.43;0.30;;;17.30;84.00;;;;;;5004664;28;20060;-76
2024/04/08 04:05:11;;;;;;;0.38;0.30;;;17.40;84.00;;;;;;4989148;28;20107;-76
2024/04/08 04:07:37;;;;;;;0.43;0.30;;;17.30;84.00;;;;;;5032557;28;20042;-76
2024/04/08 04:10:08;;;;;;;0.20;0.20;;;17.30;83.80;;;;;;4971802;28;20051;-76
2024/04/08 04:12:36;;;;;;;0.38;0.30;;;17.30;84.00;;;;;;5019421;28;20033;-76
2024/04/08 04:15:03;;;;;;;0.20;0.20;;;17.30;83.80;;;;;;5003947;28;20507;-76
2024/04/08 04:17:28;;;;;;;0.40;0.35;;;17.30;84.00;;;;;;5006358;28;20038;-76
2024/04/08 04:19:54;;;;;;;0.30;0.28;;;17.30;84.00;;;;;;4989003;28;20103;-76
2024/04/08 04:22:19;;;;;;;0.30;0.13;;;17.30;84.00;;;;;;4988472;28;20091;-76
2024/04/08 04:24:45;;;;;;;0.30;0.20;;;17.30;83.90;;;;;;5031761;28;20046;-76
2024/04/08 04:27:11;;;;;;;0.30;0.30;;;17.30;84.00;;;;;;5005073;28;20069;-76
2024/04/08 04:29:36;;;;;;;0.20;0.20;;;17.30;83.80;;;;;;5005949;28;20499;-76
2024/04/08 04:32:02;;;;;;;0.20;0.20;;;17.40;83.90;;;;;;4988190;28;20034;-76
2024/04/08 04:34:28;;;;;;;0.30;0.30;;;17.30;83.90;;;;;;5017780;28;20061;-76
2024/04/08 04:36:53;;;;;;;0.50;0.28;;;17.30;83.90;;;;;;4970472;28;20514;-76
2024/04/08 04:39:19;;;;;;;0.20;0.20;;;17.30;83.70;;;;;;5013829;28;20042;-76
2024/04/08 04:41:46;;;;;;;0.30;0.20;;;17.30;83.70;;;;;;5031402;28;20412;-76
2024/04/08 04:44:11;;;;;;;0.15;0.10;;;17.30;83.90;;;;;;5034840;28;20192;-76
2024/04/08 04:46:37;;;;;;;0.28;0.28;;;17.30;83.90;;;;;;4983565;28;20129;-76
2024/04/08 04:49:02;;;;;;;0.20;0.20;;;17.30;83.70;;;;;;5012849;28;20058;-76
2024/04/08 04:51:28;;;;;;;0.30;0.30;;;17.30;83.70;;;;;;5004486;28;20628;-76
2024/04/08 04:53:54;;;;;;;0.30;0.20;;;17.30;83.70;;;;;;4988015;28;20038;-76
2024/04/08 04:56:19;;;;;;;0.30;0.30;;;17.30;83.90;;;;;;5004951;28;20041;-76
2024/04/08 04:58:45;;;;;;;0.70;0.30;;;17.30;83.60;;;;;;5030013;28;20054;-76
2024/04/08 05:01:11;;;;;;;0.55;0.28;;;17.30;84.00;;;;;;4679546;28;10000429;-75
2024/04/08 05:03:36;;;;;;;0.38;0.28;;;17.30;84.00;;;;;;5014858;28;20316;-76
2024/04/08 05:06:02;;;;;;;0.25;0.20;;;17.30;83.80;;;;;;4999900;28;20041;-76
2024/04/08 05:08:28;;;;;;;0.17;0.17;;;17.30;84.00;;;;;;4984822;28;20197;-76
2024/04/08 05:10:54;;;;;;;0.10;0.10;;;17.30;84.00;;;;;;4983900;28;20045;-76
2024/04/08 05:13:19;;;;;;;0.20;0.20;;;17.30;84.10;;;;;;5000638;28;20503;-76
2024/04/08 05:15:57;;;;;;;0.20;0.20;;;17.30;84.10;;;;;;5001558;28;20099;-76
2024/04/08 05:18:23;;;;;;;0.43;0.28;;;17.30;84.10;;;;;;5000550;28;20080;-76
2024/04/08 05:20:50;;;;;;;0.47;0.32;;;17.30;83.90;;;;;;5002857;28;20418;-77
2024/04/08 05:23:16;;;;;;;0.30;0.30;;;17.30;83.90;;;;;;4982675;28;20499;-76
2024/04/08 05:25:42;;;;;;;0.20;0.20;;;17.30;83.90;;;;;;4998331;28;20042;-76
2024/04/08 05:28:07;;;;;;;0.30;0.30;;;17.30;83.90;;;;;;4998931;28;20050;-76
2024/04/08 05:30:33;;;;;;;0.40;0.30;;;17.30;84.20;;;;;;5010685;28;20037;-76
2024/04/08 05:32:59;;;;;;;1.20;0.40;;;17.30;84.30;;;;;;4982992;28;20100;-76
2024/04/08 05:35:24;;;;;;;0.30;0.30;;;17.30;84.10;;;;;;4981819;28;20049;-76
2024/04/08 05:37:50;;;;;;;0.55;0.40;;;17.30;84.40;;;;;;4998871;28;20045;-76
2024/04/08 05:40:16;;;;;;;0.30;0.20;;;17.40;84.30;;;;;;5026548;28;20041;-76
2024/04/08 05:42:43;;;;;;;0.63;0.30;;;17.40;84.40;;;;;;4999928;28;20049;-76
2024/04/08 05:45:10;;;;;;;0.32;0.30;;;17.40;84.20;;;;;;4965463;28;20511;-76
2024/04/08 05:47:36;;;;;;;0.30;0.30;;;17.30;84.30;;;;;;4998857;28;20069;-76
2024/04/08 05:50:02;;;;;;;0.28;0.28;;;17.40;84.50;;;;;;4994130;28;20042;-76
2024/04/08 05:52:28;;;;;;;0.20;0.20;;;17.30;84.30;;;;;;5025282;28;20046;-76
2024/04/08 05:54:53;;;;;;;0.82;0.40;;;17.40;84.10;;;;;;4996068;28;20531;-76
2024/04/08 05:57:19;;;;;;;0.30;0.30;;;17.40;84.00;;;;;;4996499;28;20118;-76
2024/04/08 05:59:45;;;;;;;1.17;0.40;;;17.40;84.60;;;;;;4997841;28;20096;-76
2024/04/08 06:02:10;;;;;;;0.63;0.35;;;17.40;83.80;;;;;;4998671;28;20108;-76
2024/04/08 06:04:36;;;;;;;0.30;0.30;;;17.40;83.90;;;;;;4987236;28;20527;-76
2024/04/08 06:07:03;;;;;;;0.50;0.38;;;17.40;84.10;;;;;;5009309;28;20558;-76
2024/04/08 06:09:29;;;;;;;0.25;0.25;;;17.40;83.90;;;;;;4996746;28;20066;-76
2024/04/08 06:11:55;;;;;;;1.30;0.10;;;17.40;83.90;;;;;;4997161;28;20182;-76
2024/04/08 06:14:20;;;;;;;0.28;0.28;;;17.40;84.00;;;;;;4984417;28;20430;-76
2024/04/08 06:16:46;;;;;;;0.50;0.50;;;17.40;84.20;;;;;;5029819;28;20163;-76
2024/04/08 06:19:12;;;;;;;0.75;0.75;;;17.40;84.20;;;;;;5030220;28;20046;-76
2024/04/08 06:21:37;;;;;;;0.75;0.75;;;17.40;84.20;;;;;;4994626;28;20050;-76
2024/04/08 06:24:03;;;;;;;1.20;0.70;;;17.40;84.30;;;;;;4995342;28;20065;-76
2024/04/08 06:26:28;;;;;;;1.08;0.98;;;17.40;84.40;;;;;;5007139;28;20041;-76
2024/04/08 06:28:54;;;;;;;2.33;0.80;;;17.40;84.40;;;;;;5011944;28;20136;-76
2024/04/08 06:31:20;;;;;;;1.02;0.93;;;17.40;84.40;;;;;;5000120;28;20053;-76
2024/04/08 06:33:45;;;;;;;0.80;0.75;;;17.40;84.40;;;;;;5016905;28;20065;-76
2024/04/08 06:36:12;;;;;;;1.33;0.90;;;17.40;85.30;;;;;;4985127;28;20042;-76
2024/04/08 06:38:38;;;;;;;1.33;0.70;;;17.40;85.20;;;;;;4973226;28;20046;-76
2024/04/08 06:41:04;;;;;;;0.77;0.63;;;17.40;85.10;;;;;;4987071;28;20478;-76
2024/04/08 06:43:29;;;;;;;0.60;0.60;;;17.40;85.30;;;;;;5000535;28;20606;-76
2024/04/08 06:45:56;;;;;;;0.52;0.52;;;17.40;85.30;;;;;;4989848;28;20089;-76
2024/04/08 06:48:21;;;;;;;0.65;0.50;;;17.40;85.20;;;;;;4972379;28;20077;-76
2024/04/08 06:50:48;;;;;;;3.40;0.50;;;17.40;85.10;;;;;;5007476;28;20684;-76
2024/04/08 06:53:13;;;;;;;1.15;0.82;;;17.40;85.20;;;;;;4978059;28;20057;-75
2024/04/08 06:55:39;;;;;;;0.60;0.60;;;17.40;85.20;;;;;;5005490;28;20042;-76
2024/04/08 06:58:06;;;;;;;0.60;0.50;;;17.30;85.10;;;;;;5020554;28;20042;-76
2024/04/08 07:00:32;;;;;;;0.60;0.60;;;17.40;85.20;;;;;;5007812;28;20030;-76
2024/04/08 07:02:57;;;;;;;0.60;0.60;;;17.30;85.00;;;;;;5015392;28;20028;-76
2024/04/08 07:05:23;;;;;;;0.50;0.50;;;17.30;84.90;;;;;;5031193;28;20108;-76
2024/04/08 07:07:48;;;;;;;1.55;0.60;;;17.30;85.00;;;;;;5016970;28;20034;-76
2024/04/08 07:10:14;;;;;;;0.57;0.45;;;17.30;84.80;;;;;;5001698;28;20187;-76
2024/04/08 07:12:39;;;;;;;0.40;0.40;;;17.40;85.10;;;;;;4999271;28;20037;-76
2024/04/08 07:15:05;;;;;;;0.77;0.75;;;17.30;84.90;;;;;;5005481;28;20212;-76
2024/04/08 07:17:31;;;;;;;0.60;0.60;;;17.40;85.00;;;;;;5006424;28;20030;-76
2024/04/08 07:19:57;;;;;;;0.70;0.70;;;17.30;84.90;;;;;;5004445;28;20049;-77
2024/04/08 07:22:23;;;;;;;0.70;0.70;;;17.30;84.80;;;;;;5006550;28;20423;-76
2024/04/08 07:24:48;;;;;;;0.70;0.65;;;17.30;84.80;;;;;;4986726;28;20046;-76
2024/04/08 07:27:14;;;;;;;0.95;0.70;;;17.30;84.80;;;;;;5005827;28;20038;-76
2024/04/08 07:29:40;;;;;;;0.52;0.52;;;17.30;84.70;;;;;;4990204;28;20077;-76
2024/04/08 07:32:06;;;;;;;0.50;0.50;;;17.30;84.80;;;;;;4999206;28;20039;-77
2024/04/08 07:34:31;;;;;;;1.10;0.60;;;17.30;84.70;;;;;;4987405;28;20053;-76
2024/04/08 07:36:57;;;;;;;0.50;0.50;;;17.30;84.70;;;;;;5002652;28;20050;-76
2024/04/08 07:39:22;;;;;;;0.47;0.47;;;17.30;84.90;;;;;;5020901;28;20046;-76
2024/04/08 07:41:48;;;;;;;0.60;0.57;;;17.30;84.60;;;;;;5008071;28;20530;-76
2024/04/08 07:44:13;;;;;;;0.60;0.50;;;17.40;84.70;;;;;;5007934;28;20050;-77
2024/04/08 07:46:39;;;;;;;0.63;0.57;;;17.40;84.80;;;;;;5005134;28;20417;-76
2024/04/08 07:49:05;;;;;;;0.32;0.32;;;17.30;84.80;;;;;;4988433;28;20042;-76
2024/04/08 07:51:30;;;;;;;0.50;0.50;;;17.30;84.70;;;;;;5005495;28;20038;-76
2024/04/08 07:53:56;;;;;;;0.50;0.50;;;17.30;84.80;;;;;;4986834;28;20527;-76
2024/04/08 07:57:53;;;;;;;0.47;0.47;;;17.30;84.80;;;;;;5390088;25;20464;-75
2024/04/08 08:00:18;;;;;;;0.63;0.55;;;17.40;84.80;;;;;;5340926;26;20040;-75
2024/04/08 08:02:44;;;;;;;1.50;0.55;;;17.30;84.70;;;;;;5350517;26;20005;-75
2024/04/08 08:05:10;;;;;;;1.17;0.60;;;17.30;84.70;;;;;;5350545;26;20464;-75
2024/04/08 08:07:35;;;;;;;0.63;0.63;;;17.30;84.70;;;;;;5352907;26;20012;-75
2024/04/08 08:10:01;;;;;;;0.50;0.50;;;17.30;84.60;;;;;;5378400;26;20017;-75
2024/04/08 08:12:27;;;;;;;2.60;0.50;;;17.30;84.70;;;;;;5372024;26;20273;-75
2024/04/08 08:14:53;;;;;;;0.85;0.30;;;17.30;84.60;;;;;;5352461;26;20009;-75
2024/04/08 08:17:18;;;;;;;0.40;0.30;;;17.30;84.70;;;;;;5348129;26;20001;-75
2024/04/08 08:19:44;;;;;;;0.50;0.30;;;17.40;84.80;;;;;;5350081;26;20342;-75
2024/04/08 08:22:10;;;;;;;0.60;0.40;;;17.40;84.80;;;;;;5321781;26;20342;-75
2024/04/08 08:24:36;;;;;;;0.45;0.45;;;17.30;84.80;;;;;;5354990;26;20019;-75
2024/04/08 08:27:02;;;;;;;0.30;0.30;;;17.40;84.50;;;;;;5376286;26;19996;-75
2024/04/08 08:29:27;;;;;;;0.40;0.40;;;17.40;84.50;;;;;;5321587;26;20012;-75
2024/04/08 08:31:53;;;;;;;0.40;0.40;;;17.40;84.60;;;;;;5323192;26;20004;-75
2024/04/08 08:34:19;;;;;;;0.52;0.40;;;17.40;84.50;;;;;;5324497;26;20015;-75
2024/04/08 08:36:46;;;;;;;0.40;0.40;;;17.40;84.70;;;;;;5355162;26;20013;-75
2024/04/08 08:39:11;;;;;;;0.60;0.40;;;17.40;84.50;;;;;;5351958;26;20099;-75
2024/04/08 08:41:37;;;;;;;0.30;0.30;;;17.40;84.80;;;;;;5353236;26;20016;-75
2024/04/08 08:44:03;;;;;;;0.40;0.40;;;17.40;84.60;;;;;;5349559;26;20099;-75
2024/04/08 08:46:28;;;;;;;0.40;0.40;;;17.40;84.80;;;;;;5353920;26;20483;-75
2024/04/08 08:48:56;;;;;;;0.32;0.32;;;17.40;84.70;;;;;;5320231;26;20376;-75
2024/04/08 08:51:22;;;;;;;0.88;0.40;;;17.40;84.90;;;;;;5353381;26;20450;-75
2024/04/08 08:53:47;;;;;;;0.32;0.32;;;17.40;85.00;;;;;;5323476;26;20005;-75
2024/04/08 08:56:15;;;;;;;0.38;0.30;;;17.30;84.90;;;;;;5346241;26;20005;-75
2024/04/08 08:58:42;;;;;;;0.50;0.50;;;17.40;85.10;;;;;;5378407;26;20016;-75
2024/04/08 09:01:07;;;;;;;0.50;0.50;;;17.40;85.00;;;;;;5352290;26;20015;-76
2024/04/08 09:03:33;;;;;;;0.57;0.40;;;17.40;85.00;;;;;;5326522;26;20000;-76
2024/04/08 09:05:59;;;;;;;0.50;0.50;;;17.40;85.00;;;;;;5341839;26;20005;-76
2024/04/08 09:08:24;;;;;;;0.40;0.40;;;17.30;84.80;;;;;;5338551;26;20508;-76
2024/04/08 09:10:50;;;;;;;0.30;0.30;;;17.30;84.80;;;;;;5328929;26;20013;-75
2024/04/08 09:13:22;;;;;;;0.50;0.50;;;17.30;84.80;;;;;;5360261;26;20435;-75
2024/04/08 09:15:48;;;;;;;0.40;0.40;;;17.30;84.90;;;;;;5337924;26;20009;-76
2024/04/08 09:18:15;;;;;;;0.40;0.40;;;17.30;84.80;;;;;;5324977;26;20490;-75
2024/04/08 09:20:41;;;;;;;0.40;0.40;;;17.30;84.90;;;;;;5336668;26;20451;-76
2024/04/08 09:23:07;;;;;;;0.32;0.32;;;17.40;84.80;;;;;;5335459;26;20020;-75
2024/04/08 09:25:33;;;;;;;0.50;0.50;;;17.40;84.70;;;;;;5338938;26;20005;-75
2024/04/08 09:27:59;;;;;;;0.38;0.38;;;17.40;84.80;;;;;;5338569;26;20019;-76
2024/04/08 09:30:25;;;;;;;0.40;0.40;;;17.40;84.70;;;;;;5335414;26;20005;-76
2024/04/08 09:32:51;;;;;;;0.40;0.30;;;17.40;84.90;;;;;;5333583;26;20469;-75
2024/04/08 09:35:16;;;;;;;0.70;0.30;;;17.30;84.80;;;;;;5301685;26;20005;-75
2024/04/08 09:37:42;;;;;;;0.40;0.40;;;17.40;84.70;;;;;;5338699;26;20019;-75
2024/04/08 09:40:08;;;;;;;0.30;0.30;;;17.40;84.60;;;;;;5335900;26;20020;-75
2024/04/08 09:42:33;;;;;;;0.40;0.40;;;17.40;85.00;;;;;;5339197;26;20005;-76
2024/04/08 09:45:03;;;;;;;0.20;0.20;;;17.40;84.80;;;;;;5303261;26;20148;-75
2024/04/08 09:47:28;;;;;;;0.40;0.40;;;17.40;84.70;;;;;;5275846;26;20479;-75
2024/04/08 09:49:54;;;;;;;0.75;0.65;;;17.40;84.80;;;;;;5336828;26;20012;-75
2024/04/08 09:52:19;;;;;;;0.30;0.30;;;17.40;84.90;;;;;;5307321;26;20023;-75
2024/04/08 09:54:45;;;;;;;0.35;0.35;;;17.30;84.70;;;;;;5333754;26;20001;-75
2024/04/08 09:57:11;;;;;;;0.57;0.40;;;17.30;84.80;;;;;;5330036;26;20343;-76
2024/04/08 09:59:38;;;;;;;0.32;0.32;;;17.30;84.80;;;;;;5308837;26;20024;-76
2024/04/08 10:02:03;;;;;;;0.50;0.50;;;17.40;84.70;;;;;;5302411;26;20671;-75
2024/04/08 10:04:31;;;;;;;0.30;0.30;;;17.30;84.80;;;;;;5308145;26;20052;-75
2024/04/08 10:06:57;;;;;;;0.43;0.30;;;17.30;84.80;;;;;;5336125;26;20001;-75
2024/04/08 10:09:24;;;;;;;0.30;0.30;;;17.30;84.90;;;;;;5333403;26;19993;-75
2024/04/08 10:11:50;;;;;;;0.30;0.30;;;17.30;85.00;;;;;;5302220;26;20004;-75
2024/04/08 10:14:17;;;;;;;0.50;0.50;;;17.30;85.10;;;;;;5337732;26;20027;-75
2024/04/08 10:16:43;;;;;;;0.35;0.35;;;17.30;84.90;;;;;;5334564;26;20057;-75
2024/04/08 10:19:10;;;;;;;0.40;0.40;;;17.30;85.00;;;;;;5331317;26;20005;-76
2024/04/08 10:21:36;;;;;;;0.30;0.30;;;17.30;85.00;;;;;;5337094;26;20020;-75
2024/04/08 10:24:01;;;;;;;0.28;0.28;;;17.30;85.00;;;;;;5338895;26;20012;-75
2024/04/08 10:26:27;;;;;;;0.30;0.30;;;17.30;85.00;;;;;;5331474;26;20089;-75
2024/04/08 10:28:53;;;;;;;0.95;0.50;;;17.30;85.10;;;;;;5334552;26;20078;-75
2024/04/08 10:31:19;;;;;;;0.65;0.30;;;17.30;85.20;;;;;;5335147;26;20005;-75
2024/04/08 10:33:45;;;;;;;0.30;0.30;;;17.30;85.20;;;;;;5310047;26;20011;-75
2024/04/08 10:36:10;;;;;;;0.30;0.30;;;17.30;85.20;;;;;;5332562;26;20013;-75
2024/04/08 10:38:36;;;;;;;0.40;0.40;;;17.30;85.30;;;;;;5338483;26;20048;-75
2024/04/08 10:41:08;;;;;;;0.38;0.30;;;17.30;85.20;;;;;;5334435;26;20012;-75
2024/04/08 10:43:34;;;;;;;0.30;0.30;;;17.30;85.40;;;;;;5337964;26;20291;-76
2024/04/08 10:46:01;;;;;;;0.30;0.30;;;17.30;85.50;;;;;;5337652;26;20355;-75
2024/04/08 10:48:27;;;;;;;0.30;0.22;;;17.30;85.20;;;;;;5335012;26;20381;-75
2024/04/08 10:50:52;;;;;;;0.22;0.22;;;17.40;85.30;;;;;;5332534;26;20079;-75
2024/04/08 10:53:18;;;;;;;0.40;0.40;;;17.40;85.30;;;;;;5328817;26;20006;-75
2024/04/08 10:55:44;;;;;;;0.30;0.30;;;17.40;85.30;;;;;;5336151;26;20087;-76
2024/04/08 10:58:11;;;;;;;0.35;0.35;;;17.30;85.40;;;;;;5335690;26;20012;-75
2024/04/08 11:00:36;;;;;;;0.40;0.28;;;17.40;85.40;;;;;;5335476;26;20020;-76
2024/04/08 11:03:03;;;;;;;0.32;0.32;;;17.30;85.40;;;;;;5332377;26;20017;-75
2024/04/08 11:05:28;;;;;;;0.30;0.20;;;17.40;86.10;;;;;;5334242;26;20529;-75
2024/04/08 11:07:56;;;;;;;0.40;0.40;;;17.40;85.30;;;;;;5332764;26;20009;-76
2024/04/08 11:10:22;;;;;;;0.47;0.40;;;17.40;85.50;;;;;;5336630;26;20005;-75
2024/04/08 11:12:48;;;;;;;0.38;0.38;;;17.40;85.30;;;;;;5336084;26;20005;-76
2024/04/08 11:15:13;;;;;;;0.30;0.30;;;17.50;85.40;;;;;;5335296;26;20023;-75
2024/04/08 11:17:40;;;;;;;0.20;0.20;;;17.50;85.30;;;;;;5303617;26;20001;-75
2024/04/08 11:20:06;;;;;;;0.40;0.40;;;17.50;85.40;;;;;;5337715;26;20017;-75
2024/04/08 11:22:33;;;;;;;0.20;0.20;;;17.50;85.30;;;;;;5333387;26;20041;-75
2024/04/08 11:24:59;;;;;;;0.30;0.30;;;17.50;85.30;;;;;;5331442;26;20458;-75
2024/04/08 11:27:27;;;;;;;0.60;0.30;;;17.50;85.40;;;;;;5334032;26;20005;-75
2024/04/08 11:29:53;;;;;;;0.50;0.38;;;17.50;85.80;;;;;;5359886;26;20100;-75
2024/04/08 11:32:22;;;;;;;0.30;0.30;;;17.60;85.10;;;;;;5357409;26;20017;-76
2024/04/08 11:34:48;;;;;;;0.25;0.25;;;17.60;85.00;;;;;;5353134;26;20002;-76
2024/04/08 11:37:14;;;;;;;0.95;0.50;;;17.60;85.00;;;;;;5333913;26;20001;-76
2024/04/08 11:39:41;;;;;;;0.73;0.60;;;17.70;85.10;;;;;;5350322;26;20078;-76
2024/04/08 11:42:07;;;;;;;0.68;0.50;;;17.70;85.30;;;;;;5333498;26;20005;-77
2024/04/08 11:44:42;;;;;;;0.40;0.32;;;17.70;85.00;;;;;;5325514;26;20001;-76
2024/04/08 11:47:09;;;;;;;0.32;0.32;;;17.80;85.20;;;;;;5325049;26;20013;-76
2024/04/08 11:49:36;;;;;;;0.30;0.30;;;17.80;84.90;;;;;;5323980;26;20008;-77
2024/04/08 11:52:04;;;;;;;0.98;0.30;;;17.80;84.50;;;;;;5337248;26;20012;-77
2024/04/08 11:54:29;;;;;;;0.40;0.40;;;17.90;84.50;;;;;;5325907;26;20343;-77
2024/04/08 11:56:57;;;;;;;0.40;0.40;;;17.90;84.50;;;;;;5330217;26;20053;-76
2024/04/08 11:59:23;;;;;;;0.30;0.30;;;17.80;84.50;;;;;;5329421;26;20016;-77
2024/04/08 12:01:48;;;;;;;0.50;0.50;;;17.80;84.80;;;;;;5336937;26;20005;-77
2024/04/08 12:04:14;;;;;;;0.30;0.30;;;17.90;84.60;;;;;;5327365;26;20005;-77
2024/04/08 12:06:40;;;;;;;0.28;0.28;;;17.80;84.40;;;;;;5337105;26;20025;-77
2024/04/08 12:09:06;;;;;;;0.40;0.25;;;17.80;84.30;;;;;;5307078;26;20026;-76
2024/04/08 12:11:31;;;;;;;0.57;0.43;;;17.80;84.70;;;;;;5334267;26;20079;-76
2024/04/08 12:13:57;;;;;;;0.40;0.40;;;17.80;84.40;;;;;;5335276;26;20020;-76
2024/04/08 12:16:23;;;;;;;0.93;0.30;;;17.80;84.60;;;;;;5331862;26;20091;-76
2024/04/08 12:18:49;;;;;;;0.40;0.20;;;17.80;84.50;;;;;;5338272;26;20012;-76
2024/04/08 12:21:14;;;;;;;0.32;0.32;;;17.90;84.40;;;;;;5331209;26;20033;-77
2024/04/08 12:23:40;;;;;;;0.45;0.38;;;17.90;84.50;;;;;;5333462;26;20377;-76
2024/04/08 12:26:06;;;;;;;0.30;0.30;;;17.90;84.40;;;;;;5333473;26;20009;-77
2024/04/08 12:28:32;;;;;;;0.30;0.30;;;17.90;84.30;;;;;;5333961;26;20013;-76
2024/04/08 12:30:58;;;;;;;1.73;0.32;;;17.90;84.40;;;;;;5334852;26;20001;-76
2024/04/08 12:33:23;;;;;;;0.47;0.47;;;17.90;84.30;;;;;;5331633;26;20016;-77
2024/04/08 12:35:49;;;;;;;0.28;0.28;;;17.90;84.40;;;;;;5332664;26;20009;-76
2024/04/08 12:38:14;;;;;;;0.20;0.20;;;17.90;84.40;;;;;;5337026;26;19997;-76
2024/04/08 12:40:40;;;;;;;0.50;0.40;;;18.00;84.40;;;;;;5336763;26;20008;-76